createdAt,value
2022-09-04T00:00:11.707Z,15.90
2022-09-04T00:02:57.510Z,15.80
2022-09-04T00:05:25.256Z,15.80
2022-09-04T00:08:12.340Z,15.80
2022-09-04T00:10:51.667Z,15.80
2022-09-04T00:13:27.729Z,15.80
2022-09-04T00:16:09.659Z,15.70
2022-09-04T00:19:02.627Z,15.70
2022-09-04T00:21:39.820Z,15.80
2022-09-04T00:24:18.834Z,15.80
2022-09-04T00:26:50.153Z,15.80
2022-09-04T00:29:41.766Z,15.80
2022-09-04T00:32:18.852Z,15.70
2022-09-04T00:34:55.193Z,15.80
2022-09-04T00:37:27.552Z,15.70
2022-09-04T00:40:01.056Z,15.60
2022-09-04T00:43:16.798Z,15.60
2022-09-04T00:46:13.091Z,15.70
2022-09-04T00:48:59.300Z,15.60
2022-09-04T00:51:41.744Z,15.50
2022-09-04T00:54:46.037Z,15.60
2022-09-04T00:57:50.319Z,15.50
2022-09-04T01:00:20.664Z,15.50
2022-09-04T01:03:12.321Z,15.50
2022-09-04T01:05:46.621Z,15.40
2022-09-04T01:08:22.743Z,15.40
2022-09-04T01:11:11.061Z,15.40
2022-09-04T01:13:50.463Z,15.30
2022-09-04T01:16:36.073Z,15.30
2022-09-04T01:19:14.185Z,15.40
2022-09-04T01:21:54.285Z,15.40
2022-09-04T01:24:33.881Z,15.30
2022-09-04T01:27:19.715Z,15.30
2022-09-04T01:30:10.359Z,15.20
2022-09-04T01:33:24.893Z,15.20
2022-09-04T01:36:05.745Z,15.20
2022-09-04T01:38:47.768Z,15.20
2022-09-04T01:41:39.931Z,15.10
2022-09-04T01:44:09.606Z,15.10
2022-09-04T01:47:03.946Z,15.10
2022-09-04T01:49:56.143Z,15.10
2022-09-04T01:52:48.914Z,15.10
2022-09-04T01:55:19.114Z,15.10
2022-09-04T01:57:52.259Z,15.10
2022-09-04T02:00:23.053Z,15.10
2022-09-04T02:02:55.434Z,15.20
2022-09-04T02:05:56.831Z,15.20
2022-09-04T02:08:49.493Z,15.20
2022-09-04T02:11:38.661Z,15.10
2022-09-04T02:14:27.560Z,15.00
2022-09-04T02:17:22.016Z,15.00
2022-09-04T02:20:01.706Z,15.10
2022-09-04T02:23:02.978Z,15.10
2022-09-04T02:25:38.702Z,15.20
2022-09-04T02:28:33.390Z,15.10
2022-09-04T02:31:39.059Z,14.90
2022-09-04T02:34:25.175Z,14.90
2022-09-04T02:36:55.541Z,14.90
2022-09-04T02:39:41.005Z,14.90
2022-09-04T02:42:38.300Z,14.90
2022-09-04T02:45:28.523Z,14.90
2022-09-04T02:48:13.631Z,14.80
2022-09-04T02:51:03.089Z,14.70
2022-09-04T02:53:47.331Z,14.60
2022-09-04T02:56:43.809Z,14.70
2022-09-04T02:59:28.348Z,14.60
2022-09-04T03:02:01.926Z,14.60
2022-09-04T03:04:49.931Z,14.60
2022-09-04T03:07:33.090Z,14.50
2022-09-04T03:10:17.570Z,14.50
2022-09-04T03:13:13.273Z,14.60
2022-09-04T03:15:51.906Z,14.70
2022-09-04T03:18:56.876Z,14.70
2022-09-04T03:21:36.571Z,14.80
2022-09-04T03:24:15.782Z,14.80
2022-09-04T03:26:54.598Z,14.70
2022-09-04T03:29:35.863Z,14.70
2022-09-04T03:32:23.818Z,14.60
2022-09-04T03:34:59.417Z,14.50
2022-09-04T03:37:26.743Z,14.40
2022-09-04T03:40:16.028Z,14.40
2022-09-04T03:43:15.255Z,14.50
2022-09-04T03:45:42.497Z,14.40
2022-09-04T03:48:26.623Z,14.40
2022-09-04T03:51:24.296Z,14.40
2022-09-04T03:54:19.141Z,14.40
2022-09-04T03:57:08.025Z,14.30
2022-09-04T03:59:53.726Z,14.40
2022-09-04T04:02:36.096Z,14.50
2022-09-04T04:05:13.845Z,14.40
2022-09-04T04:07:51.811Z,14.30
2022-09-04T04:10:24.793Z,14.30
2022-09-04T04:13:16.070Z,14.30
2022-09-04T04:15:57.999Z,14.20
2022-09-04T04:18:43.633Z,14.20
2022-09-04T04:21:33.491Z,14.30
2022-09-04T04:24:18.827Z,14.30
2022-09-04T04:27:14.293Z,14.40
2022-09-04T04:29:59.607Z,14.30
2022-09-04T04:32:50.240Z,14.30
2022-09-04T04:35:25.089Z,14.30
2022-09-04T04:38:00.489Z,14.30
2022-09-04T04:40:41.126Z,14.20
2022-09-04T04:43:30.851Z,14.20
2022-09-04T04:46:12.175Z,14.20
2022-09-04T04:48:45.167Z,14.30
2022-09-04T04:51:40.678Z,14.30
2022-09-04T04:54:13.195Z,14.50
2022-09-04T04:56:50.338Z,14.50
2022-09-04T04:59:39.538Z,14.50
2022-09-04T05:02:09.945Z,14.60
2022-09-04T05:04:49.219Z,14.60
2022-09-04T05:07:52.165Z,14.60
2022-09-04T05:10:47.497Z,14.60
2022-09-04T05:13:27.756Z,14.60
2022-09-04T05:16:09.603Z,14.70
2022-09-04T05:19:10.210Z,14.70
2022-09-04T05:21:47.542Z,14.70
2022-09-04T05:24:18.013Z,14.80
2022-09-04T05:27:20.487Z,14.90
2022-09-04T05:30:05.124Z,15.00
2022-09-04T05:32:55.952Z,15.00
2022-09-04T05:35:42.469Z,15.10
2022-09-04T05:38:23.965Z,15.20
2022-09-04T05:41:06.901Z,15.20
2022-09-04T05:43:50.050Z,15.30
2022-09-04T05:46:37.636Z,15.40
2022-09-04T05:49:31.279Z,15.40
2022-09-04T05:52:07.007Z,15.50
2022-09-04T05:55:02.255Z,15.60
2022-09-04T05:57:48.345Z,15.80
2022-09-04T06:00:18.556Z,15.90
2022-09-04T06:03:07.051Z,16.10
2022-09-04T06:05:58.854Z,16.20
2022-09-04T06:09:08.371Z,16.30
2022-09-04T06:11:35.872Z,16.50
2022-09-04T06:14:18.559Z,16.50
2022-09-04T06:17:08.178Z,16.60
2022-09-04T06:19:41.812Z,16.70
2022-09-04T06:22:18.965Z,16.70
2022-09-04T06:24:58.215Z,16.80
2022-09-04T06:27:37.103Z,16.80
2022-09-04T06:30:14.391Z,16.90
2022-09-04T06:32:56.755Z,17.00
2022-09-04T06:35:32.954Z,17.20
2022-09-04T06:38:18.746Z,17.50
2022-09-04T06:41:20.438Z,18.10
2022-09-04T06:44:10.851Z,18.20
2022-09-04T06:46:49.085Z,18.30
2022-09-04T06:49:35.464Z,18.60
2022-09-04T06:52:38.901Z,19.20
2022-09-04T06:55:38.968Z,20.00
2022-09-04T06:58:25.905Z,21.50
2022-09-04T07:01:08.919Z,21.90
2022-09-04T07:03:57.427Z,21.90
2022-09-04T07:06:36.464Z,21.70
2022-09-04T07:09:23.835Z,21.30
2022-09-04T07:12:09.659Z,21.40
2022-09-04T07:14:54.394Z,21.50
2022-09-04T07:17:30.559Z,21.20
2022-09-04T07:20:22.599Z,21.20
2022-09-04T07:23:16.077Z,20.90
2022-09-04T07:26:18.839Z,20.80
2022-09-04T07:28:57.562Z,21.00
2022-09-04T07:31:54.125Z,21.00
2022-09-04T07:34:42.180Z,21.10
2022-09-04T07:37:33.553Z,21.40
2022-09-04T07:40:25.024Z,23.60
2022-09-04T07:43:25.550Z,26.20
2022-09-04T07:46:05.369Z,28.30
2022-09-04T07:48:59.104Z,29.70
2022-09-04T07:51:34.129Z,30.40
2022-09-04T07:54:33.882Z,31.20
2022-09-04T07:57:01.149Z,33.00
2022-09-04T07:59:47.078Z,34.10
2022-09-04T08:02:27.930Z,34.80
2022-09-04T08:05:10.981Z,35.50
2022-09-04T08:07:38.259Z,34.70
2022-09-04T08:10:24.137Z,34.90
2022-09-04T08:13:09.881Z,35.50
2022-09-04T08:15:49.893Z,35.80
2022-09-04T08:18:26.291Z,35.70
2022-09-04T08:21:31.625Z,35.80
2022-09-04T08:24:10.824Z,36.50
2022-09-04T08:26:46.926Z,37.50
2022-09-04T08:29:42.219Z,38.30
2022-09-04T08:32:37.975Z,38.40
2022-09-04T08:35:39.517Z,38.20
2022-09-04T08:38:38.569Z,38.50
2022-09-04T08:41:41.797Z,39.10
2022-09-04T08:44:26.963Z,39.90
2022-09-04T08:47:31.897Z,39.50
2022-09-04T08:50:27.390Z,39.90
2022-09-04T08:53:04.120Z,40.00
2022-09-04T08:55:58.520Z,40.00
2022-09-04T08:58:56.057Z,40.50
2022-09-04T09:01:47.698Z,39.90
2022-09-04T09:04:52.061Z,39.50
2022-09-04T09:07:22.608Z,38.40
2022-09-04T09:10:09.861Z,38.60
2022-09-04T09:13:14.491Z,39.10
2022-09-04T09:16:03.013Z,38.60
2022-09-04T09:18:51.250Z,39.00
2022-09-04T09:21:33.449Z,39.40
2022-09-04T09:24:38.968Z,39.70
2022-09-04T09:27:42.220Z,39.80
2022-09-04T09:30:21.542Z,40.20
2022-09-04T09:33:21.573Z,39.50
2022-09-04T09:36:01.964Z,39.50
2022-09-04T09:39:02.050Z,39.90
2022-09-04T09:42:13.932Z,40.60
2022-09-04T09:45:01.836Z,39.00
2022-09-04T09:48:11.504Z,39.90
2022-09-04T09:50:57.224Z,39.30
2022-09-04T09:53:55.249Z,39.90
2022-09-04T09:56:59.963Z,40.20
2022-09-04T09:59:45.849Z,40.80
2022-09-04T10:02:39.440Z,40.50
2022-09-04T10:05:30.048Z,40.20
2022-09-04T10:08:35.503Z,40.90
2022-09-04T10:11:36.786Z,40.60
2022-09-04T10:14:16.548Z,40.30
2022-09-04T10:17:22.865Z,39.80
2022-09-04T10:20:27.969Z,39.40
2022-09-04T10:23:26.419Z,39.20
2022-09-04T10:26:08.613Z,39.20
2022-09-04T10:29:11.226Z,36.90
2022-09-04T10:32:12.842Z,36.30
2022-09-04T10:34:46.380Z,35.10
2022-09-04T10:37:26.817Z,33.20
2022-09-04T10:40:31.039Z,32.30
2022-09-04T10:43:20.097Z,31.50
2022-09-04T10:46:22.641Z,31.30
2022-09-04T10:49:15.865Z,31.10
2022-09-04T10:51:52.309Z,30.80
2022-09-04T10:54:45.013Z,30.60
2022-09-04T10:57:48.193Z,30.00
2022-09-04T11:00:47.463Z,29.70
2022-09-04T11:03:43.273Z,29.40
2022-09-04T11:06:32.302Z,29.50
2022-09-04T11:09:16.014Z,29.70
2022-09-04T11:11:52.712Z,29.70
2022-09-04T11:14:45.377Z,29.90
2022-09-04T11:17:21.889Z,30.00
2022-09-04T11:19:54.665Z,29.70
2022-09-04T11:22:38.635Z,29.80
2022-09-04T11:25:42.691Z,30.00
2022-09-04T11:28:30.244Z,30.20
2022-09-04T11:31:20.950Z,30.00
2022-09-04T11:34:33.029Z,30.30
2022-09-04T11:37:24.995Z,30.00
2022-09-04T11:40:10.339Z,29.70
2022-09-04T11:43:03.756Z,29.90
2022-09-04T11:45:56.545Z,30.60
2022-09-04T11:48:50.900Z,30.70
2022-09-04T11:51:40.914Z,31.10
2022-09-04T11:54:46.030Z,30.70
2022-09-04T11:57:21.492Z,30.30
2022-09-04T12:00:09.734Z,29.90
2022-09-04T12:02:55.881Z,29.40
2022-09-04T12:06:00.790Z,29.00
2022-09-04T12:08:41.928Z,28.90
2022-09-04T12:11:34.397Z,29.10
2022-09-04T12:14:09.403Z,29.10
2022-09-04T12:17:15.519Z,29.00
2022-09-04T12:20:24.181Z,28.80
2022-09-04T12:23:16.283Z,29.10
2022-09-04T12:26:05.315Z,29.10
2022-09-04T12:28:52.487Z,29.30
2022-09-04T12:31:38.586Z,29.40
2022-09-04T12:34:18.488Z,29.50
2022-09-04T12:36:52.191Z,29.70
2022-09-04T12:39:25.616Z,29.90
2022-09-04T12:42:20.459Z,29.70
2022-09-04T12:45:07.952Z,29.30
2022-09-04T12:47:59.197Z,29.50
2022-09-04T12:50:48.078Z,29.70
2022-09-04T12:53:25.682Z,29.70
2022-09-04T12:56:50.518Z,29.50
2022-09-04T12:59:45.678Z,29.50
2022-09-04T13:02:49.095Z,29.20
2022-09-04T13:05:22.803Z,29.00
2022-09-04T13:08:18.092Z,28.90
2022-09-04T13:10:57.725Z,28.90
2022-09-04T13:13:46.030Z,29.00
2022-09-04T13:16:38.665Z,29.10
2022-09-04T13:19:28.582Z,29.00
2022-09-04T13:22:04.762Z,29.00
2022-09-04T13:25:02.520Z,29.00
2022-09-04T13:27:50.103Z,29.20
2022-09-04T13:30:24.292Z,28.90
2022-09-04T13:33:26.164Z,28.90
2022-09-04T13:36:35.524Z,29.10
2022-09-04T13:39:14.715Z,29.30
2022-09-04T13:42:05.175Z,29.20
2022-09-04T13:44:58.083Z,28.80
2022-09-04T13:47:32.882Z,28.80
2022-09-04T13:50:22.466Z,28.70
2022-09-04T13:53:24.568Z,28.80
2022-09-04T13:55:59.913Z,28.90
2022-09-04T13:58:33.302Z,28.90
2022-09-04T14:01:06.391Z,28.80
2022-09-04T14:03:47.259Z,28.80
2022-09-04T14:06:18.055Z,28.70
2022-09-04T14:09:04.471Z,28.50
2022-09-04T14:11:32.575Z,28.60
2022-09-04T14:14:44.549Z,28.70
2022-09-04T14:17:12.505Z,28.70
2022-09-04T14:19:45.098Z,28.90
2022-09-04T14:22:41.722Z,28.90
2022-09-04T14:25:39.039Z,28.90
2022-09-04T14:28:20.532Z,28.90
2022-09-04T14:31:11.111Z,28.80
2022-09-04T14:34:03.834Z,28.60
2022-09-04T14:37:04.854Z,28.30
2022-09-04T14:39:57.810Z,28.00
2022-09-04T14:43:01.507Z,27.90
2022-09-04T14:45:46.559Z,28.00
2022-09-04T14:48:17.523Z,28.00
2022-09-04T14:50:49.434Z,27.80
2022-09-04T14:53:35.480Z,27.80
2022-09-04T14:56:20.275Z,27.80
2022-09-04T14:58:50.896Z,27.80
2022-09-04T15:01:24.899Z,28.00
2022-09-04T15:04:07.239Z,28.10
2022-09-04T15:07:10.692Z,28.10
2022-09-04T15:09:43.014Z,28.20
2022-09-04T15:12:25.299Z,28.30
2022-09-04T15:15:19.331Z,28.30
2022-09-04T15:17:57.615Z,28.30
2022-09-04T15:20:29.753Z,28.30
2022-09-04T15:23:08.118Z,28.30
2022-09-04T15:26:00.084Z,28.30
2022-09-04T15:28:54.747Z,28.20
2022-09-04T15:31:31.441Z,27.90
2022-09-04T15:34:06.080Z,27.80
2022-09-04T15:36:35.917Z,27.70
2022-09-04T15:39:08.234Z,27.70
2022-09-04T15:41:47.273Z,27.70
2022-09-04T15:44:29.950Z,27.70
2022-09-04T15:47:17.410Z,27.70
2022-09-04T15:49:55.421Z,27.60
2022-09-04T15:52:41.484Z,27.70
2022-09-04T15:55:27.736Z,27.60
2022-09-04T15:58:25.478Z,27.50
2022-09-04T16:01:06.281Z,27.50
2022-09-04T16:03:52.373Z,27.60
2022-09-04T16:06:32.162Z,27.50
2022-09-04T16:09:08.226Z,27.50
2022-09-04T16:12:09.911Z,27.40
2022-09-04T16:15:31.113Z,27.40
2022-09-04T16:18:08.948Z,27.30
2022-09-04T16:20:51.289Z,27.20
2022-09-04T16:23:32.109Z,27.10
2022-09-04T16:26:10.519Z,27.00
2022-09-04T16:28:45.494Z,26.90
2022-09-04T16:31:22.482Z,26.90
2022-09-04T16:33:53.950Z,26.80
2022-09-04T16:36:27.035Z,26.80
2022-09-04T16:39:36.368Z,26.70
2022-09-04T16:42:21.882Z,26.60
2022-09-04T16:45:16.590Z,26.60
2022-09-04T16:47:59.097Z,26.70
2022-09-04T16:50:58.050Z,26.60
2022-09-04T16:53:47.975Z,26.70
2022-09-04T16:56:34.556Z,26.60
2022-09-04T16:59:35.816Z,26.60
2022-09-04T17:02:15.057Z,26.50
2022-09-04T17:05:18.159Z,26.40
2022-09-04T17:07:54.123Z,26.20
2022-09-04T17:10:41.317Z,26.20
2022-09-04T17:13:16.876Z,26.10
2022-09-04T17:16:06.457Z,26.00
2022-09-04T17:18:35.807Z,25.90
2022-09-04T17:24:25.297Z,25.80
2022-09-04T17:29:00.944Z,25.70
2022-09-04T17:29:15.822Z,25.60
2022-09-04T17:30:45.622Z,25.40
2022-09-04T17:38:24.325Z,25.20
2022-09-04T17:40:39.499Z,25.00
2022-09-04T17:40:48.713Z,24.90
2022-09-04T17:42:34.920Z,24.80
2022-09-04T17:45:32.342Z,24.50
2022-09-04T17:48:06.107Z,24.40
2022-09-04T17:50:58.412Z,24.20
2022-09-04T17:53:35.918Z,24.10
2022-09-04T17:56:08.216Z,23.90
2022-09-04T17:58:40.084Z,23.80
2022-09-04T18:01:27.802Z,23.60
2022-09-04T18:04:37.503Z,23.60
2022-09-04T18:07:28.828Z,23.40
2022-09-04T18:10:23.766Z,23.40
2022-09-04T18:13:36.997Z,23.20
2022-09-04T18:16:19.746Z,22.90
2022-09-04T18:18:51.837Z,22.80
2022-09-04T18:21:41.682Z,22.60
2022-09-04T18:24:34.101Z,22.40
2022-09-04T18:27:39.019Z,22.20
2022-09-04T18:33:55.634Z,22.00
2022-09-04T18:37:21.165Z,21.60
2022-09-04T18:37:23.605Z,21.80
2022-09-04T18:39:25.923Z,21.50
2022-09-04T18:45:45.497Z,21.40
2022-09-04T18:50:33.449Z,21.20
2022-09-04T18:50:41.120Z,21.30
2022-09-04T18:51:20.269Z,21.00
2022-09-04T18:54:00.145Z,20.90
2022-09-04T18:56:43.906Z,20.90
2022-09-04T18:59:24.700Z,20.80
2022-09-04T19:02:23.038Z,20.70
2022-09-04T19:04:52.510Z,20.60
2022-09-04T19:07:27.257Z,20.50
2022-09-04T19:10:06.778Z,20.40
2022-09-04T19:12:50.658Z,20.30
2022-09-04T19:15:35.943Z,20.20
2022-09-04T19:18:45.956Z,20.20
2022-09-04T19:21:23.455Z,20.20
2022-09-04T19:24:23.754Z,20.10
2022-09-04T19:26:56.096Z,20.00
2022-09-04T19:29:31.584Z,19.90
2022-09-04T19:32:24.611Z,19.90
2022-09-04T19:35:18.723Z,19.80
2022-09-04T19:45:56.173Z,19.70
2022-09-04T19:46:05.196Z,19.60
2022-09-04T19:46:15.288Z,19.50
2022-09-04T19:47:31.622Z,19.50
2022-09-04T19:53:21.652Z,19.50
2022-09-04T19:53:39.037Z,19.60
2022-09-04T19:57:14.730Z,19.50
2022-09-04T19:59:44.844Z,19.40
2022-09-04T20:02:19.114Z,19.30
2022-09-04T20:04:55.292Z,19.20
2022-09-04T20:07:42.606Z,19.10
2022-09-04T20:10:44.416Z,19.00
2022-09-04T20:13:30.325Z,18.90
2022-09-04T20:16:22.514Z,18.90
2022-09-04T20:19:10.912Z,18.80
2022-09-04T20:22:13.120Z,18.70
2022-09-04T20:25:08.477Z,18.70
2022-09-04T20:27:50.955Z,18.60
2022-09-04T20:30:26.465Z,18.40
2022-09-04T20:33:17.882Z,18.40
2022-09-04T20:35:59.926Z,18.30
2022-09-04T20:38:48.809Z,18.30
2022-09-04T20:41:26.508Z,18.30
2022-09-04T20:44:19.149Z,18.30
2022-09-04T20:52:42.448Z,18.30
2022-09-04T20:52:50.729Z,18.20
2022-09-04T20:53:35.277Z,18.20
2022-09-04T20:57:02.394Z,18.10
2022-09-04T21:03:11.930Z,18.00
2022-09-04T21:03:13.422Z,18.00
2022-09-04T21:05:39.676Z,18.00
2022-09-04T21:08:14.987Z,17.90
2022-09-04T21:11:18.240Z,17.90
2022-09-04T21:14:01.480Z,17.90
2022-09-04T21:16:56.064Z,17.90
2022-09-04T21:19:57.627Z,17.80
2022-09-04T21:22:43.100Z,17.80
2022-09-04T21:25:31.549Z,17.70
2022-09-04T21:28:20.361Z,17.70
2022-09-04T21:30:50.743Z,17.70
2022-09-04T21:33:46.941Z,17.60
2022-09-04T21:36:29.255Z,17.60
2022-09-04T21:39:34.501Z,17.60
2022-09-04T21:42:45.398Z,17.50
2022-09-04T21:45:55.442Z,17.50
2022-09-04T21:48:44.744Z,17.40
2022-09-04T21:51:35.078Z,17.40
2022-09-04T21:55:35.905Z,17.40
2022-09-04T22:02:26.605Z,17.40
2022-09-04T22:02:36.874Z,17.40
2022-09-04T22:04:03.259Z,17.50
2022-09-04T22:08:18.672Z,17.50
2022-09-04T22:13:29.102Z,17.50
2022-09-04T22:13:42.610Z,17.40
2022-09-04T22:16:17.962Z,17.40
2022-09-04T22:19:22.826Z,17.30
2022-09-04T22:21:50.110Z,17.30
2022-09-04T22:24:41.074Z,17.30
2022-09-04T22:27:56.591Z,17.30
2022-09-04T22:30:22.863Z,17.10
2022-09-04T22:33:08.861Z,17.10
2022-09-04T22:35:57.743Z,17.00
2022-09-04T22:39:12.518Z,17.00
2022-09-04T22:42:05.397Z,16.90
2022-09-04T22:44:34.819Z,16.90
2022-09-04T22:47:26.966Z,16.90
2022-09-04T22:50:00.416Z,16.80
2022-09-04T22:52:43.811Z,16.80
2022-09-04T22:55:39.640Z,16.80
2022-09-04T22:58:18.025Z,16.80
2022-09-04T23:01:20.529Z,16.70
2022-09-04T23:04:25.090Z,16.80
2022-09-04T23:12:13.511Z,16.80
2022-09-04T23:13:46.988Z,16.80
2022-09-04T23:14:06.564Z,16.70
2022-09-04T23:17:09.461Z,16.70
2022-09-04T23:26:30.968Z,16.70
2022-09-04T23:26:43.218Z,16.60
2022-09-04T23:26:45.337Z,16.60
2022-09-04T23:29:56.300Z,16.60
2022-09-04T23:32:57.394Z,16.60
2022-09-04T23:35:54.342Z,16.50
2022-09-04T23:38:24.468Z,16.50
2022-09-04T23:41:10.343Z,16.40
2022-09-04T23:44:14.760Z,16.40
2022-09-04T23:47:09.300Z,16.40
2022-09-04T23:50:19.608Z,16.40
2022-09-04T23:53:14.509Z,16.30
2022-09-04T23:56:00.366Z,16.30
2022-09-04T23:59:14.237Z,16.20
